Time;durP1;ratioP1;P1;durP2;ratioP2;P2;SDS_P1;SDS_P2;PMS_P1;PMS_P2;Temp;Humidity;BMP_temperature;BMP_pressure;BME280_temperature;BME280_humidity;BME280_pressure;Samples;Min_cycle;Max_cycle;Signal;HPM_P1;HPM_P2
2023/10/03 00:01:40;;;;;;;3.90;2.53;;;;;;;-145.63;50.72;39258.94;5104459;28;20036;-67
2023/10/03 00:04:10;;;;;;;4.88;2.65;;;;;;;-145.63;51.00;39307.81;5104288;28;20224;-68
2023/10/03 00:06:38;;;;;;;5.43;2.78;;;;;;;-145.63;50.46;39307.81;5103200;28;20024;-69
2023/10/03 00:09:06;;;;;;;4.20;2.42;;;;;;;-145.63;50.74;39288.25;5104265;28;20020;-68
2023/10/03 00:11:33;;;;;;;4.65;2.40;;;;;;;-145.63;50.64;39290.22;5101296;28;20331;-68
2023/10/03 00:14:00;;;;;;;3.00;2.33;;;;;;;-145.63;50.77;39264.78;5104151;28;20034;-67
2023/10/03 00:16:26;;;;;;;4.63;2.20;;;;;;;-145.63;50.67;39325.41;5104074;28;20210;-68
2023/10/03 00:18:51;;;;;;;6.07;2.20;;;;;;;-145.63;50.78;39286.31;5104483;28;20027;-68
2023/10/03 00:21:18;;;;;;;6.10;3.53;;;;;;;-145.63;50.45;39280.44;5102861;28;20021;-67
2023/10/03 00:23:43;;;;;;;3.95;2.67;;;;;;;-145.63;50.80;39280.44;5102914;28;20023;-68
2023/10/03 00:26:15;;;;;;;4.28;2.40;;;;;;;-145.63;51.28;39305.88;5104068;28;20035;-68
2023/10/03 00:28:40;;;;;;;3.22;2.30;;;;;;;-145.63;50.87;39278.47;5103670;28;20105;-68
2023/10/03 00:31:10;;;;;;;4.22;2.05;;;;;;;-145.63;51.23;39278.47;5097750;28;20032;-69
2023/10/03 00:33:36;;;;;;;9.25;2.25;;;;;;;-145.63;50.75;39317.59;5103960;28;20076;-68
2023/10/03 00:36:03;;;;;;;4.50;2.40;;;;;;;-145.63;50.68;39311.72;5103996;28;20034;-68
2023/10/03 00:38:29;;;;;;;6.45;2.28;;;;;;;-145.63;51.06;39301.94;5103951;28;20035;-68
2023/10/03 00:40:55;;;;;;;2.97;2.00;;;;;;;-145.63;50.78;39333.25;5103668;28;20024;-68
2023/10/03 00:43:22;;;;;;;3.50;2.15;;;;;;;-145.63;50.52;39247.19;5085227;28;20044;-69
2023/10/03 00:45:51;;;;;;;7.05;2.75;;;;;;;-145.63;50.97;39290.22;5101039;28;20027;-68
2023/10/03 00:48:18;;;;;;;2.80;1.80;;;;;;;-145.63;50.78;39286.31;5105506;28;20044;-68
2023/10/03 00:50:44;;;;;;;3.78;2.13;;;;;;;-145.63;51.28;39288.25;5108088;28;20277;-68
2023/10/03 00:53:12;;;;;;;4.93;2.35;;;;;;;-145.63;50.68;39288.25;5103216;28;20295;-67
2023/10/03 00:55:40;;;;;;;3.33;2.10;;;;;;;-145.63;51.06;39079.00;5103647;28;20028;-68
2023/10/03 01:00:46;;;;;;;3.72;1.98;;;;;;;-145.63;51.20;39280.44;5103430;28;20020;-66
2023/10/03 01:03:47;;;;;;;4.78;2.08;;;;;;;-145.63;50.61;39290.22;5103392;28;20095;-68
2023/10/03 01:06:15;;;;;;;6.03;2.30;;;;;;;-145.63;50.98;39266.75;5021092;28;20030;-67
2023/10/03 01:08:46;;;;;;;3.78;2.20;;;;;;;-145.63;50.95;39184.59;5079231;28;20024;-67
2023/10/03 01:11:18;;;;;;;5.30;2.30;;;;;;;-145.63;50.62;39276.53;5103309;28;20039;-68
2023/10/03 01:13:59;;;;;;;4.00;2.28;;;;;;;-145.63;51.37;39282.41;5103349;28;20035;-66
2023/10/03 01:18:59;;;;;;;5.38;2.20;;;;;;;-145.63;51.06;39343.03;5101190;28;20028;-67
2023/10/03 01:21:28;;;;;;;3.55;2.50;;;;;;;-145.63;50.97;39321.50;5093778;28;20036;-67
2023/10/03 01:23:54;;;;;;;3.55;2.00;;;;;;;-145.63;51.14;39356.72;5092831;28;20024;-67
2023/10/03 01:26:21;;;;;;;4.25;2.50;;;;;;;-145.63;51.13;39260.88;5101838;28;20024;-67
2023/10/03 01:28:48;;;;;;;3.25;1.80;;;;;;;-145.63;51.14;39296.09;5102731;28;20043;-68
2023/10/03 01:31:14;;;;;;;4.20;1.88;;;;;;;-145.63;50.99;39288.25;5102894;28;20397;-68
2023/10/03 01:33:39;;;;;;;4.43;2.10;;;;;;;-145.63;51.50;39309.78;5087110;28;20032;-67
2023/10/03 01:36:06;;;;;;;6.68;2.30;;;;;;;-145.63;51.39;39298.03;5093814;28;20237;-67
2023/10/03 01:38:31;;;;;;;3.17;2.40;;;;;;;-145.63;51.73;39313.69;5103095;28;20032;-68
2023/10/03 01:41:00;;;;;;;5.20;2.20;;;;;;;-145.63;51.70;39282.41;5102924;28;20028;-67
2023/10/03 01:43:26;;;;;;;3.70;1.95;;;;;;;-145.63;51.64;39274.56;5102819;28;20039;-67
2023/10/03 01:45:53;;;;;;;4.35;2.30;;;;;;;-145.63;51.38;39325.41;5103296;28;20024;-67
2023/10/03 01:48:19;;;;;;;4.78;2.25;;;;;;;-145.63;51.98;39327.38;5104852;28;20027;-68
2023/10/03 01:50:45;;;;;;;2.55;1.85;;;;;;;-145.63;51.81;39301.94;5112529;28;20101;-67
2023/10/03 01:53:11;;;;;;;5.32;2.17;;;;;;;-145.63;51.81;39323.47;5102522;28;20047;-67
2023/10/03 01:55:38;;;;;;;3.25;1.95;;;;;;;-145.63;51.61;39303.91;5102891;28;20047;-67
2023/10/03 01:58:04;;;;;;;5.18;2.30;;;;;;;-145.63;51.98;39307.81;5102878;28;20028;-67
2023/10/03 02:00:30;;;;;;;3.88;2.10;;;;;;;-145.63;51.96;39309.78;5101246;28;20201;-67
2023/10/03 02:03:07;;;;;;;3.92;2.08;;;;;;;-145.63;52.21;39301.94;5102872;28;20024;-67
2023/10/03 02:05:34;;;;;;;4.93;2.60;;;;;;;-145.63;52.06;39298.03;5102418;28;20027;-68
2023/10/03 02:08:07;;;;;;;4.93;2.20;;;;;;;-145.63;52.29;39333.25;5102758;28;20020;-66
2023/10/03 02:10:37;;;;;;;3.30;2.33;;;;;;;-145.63;52.48;39272.63;5099358;28;20066;-67
2023/10/03 02:13:14;;;;;;;4.38;2.60;;;;;;;-145.63;52.56;39325.41;5106789;28;20052;-68
2023/10/03 02:15:46;;;;;;;4.67;2.43;;;;;;;-145.63;52.73;39386.06;5093083;28;20021;-68
2023/10/03 02:18:12;;;;;;;3.38;2.13;;;;;;;-145.63;52.71;39376.28;5101306;28;20024;-69
2023/10/03 02:20:47;;;;;;;5.53;2.10;;;;;;;-145.63;52.76;39386.06;5106275;28;20028;-68
2023/10/03 02:23:19;;;;;;;3.60;2.10;;;;;;;-145.63;53.11;39294.13;5106346;28;20028;-69
2023/10/03 02:25:47;;;;;;;5.68;3.33;;;;;;;-145.63;53.28;39341.06;5085029;28;20081;-68
2023/10/03 02:28:15;;;;;;;4.07;2.83;;;;;;;-145.63;52.94;39303.91;5102305;28;20044;-69
2023/10/03 02:30:41;;;;;;;5.47;2.72;;;;;;;-145.63;52.85;39323.47;5103240;28;20082;-68
2023/10/03 02:33:13;;;;;;;4.72;2.38;;;;;;;-145.63;52.90;39354.75;5101003;28;20096;-68
2023/10/03 02:35:43;;;;;;;6.45;3.13;;;;;;;-145.63;53.20;39268.72;5106201;28;20039;-66
2023/10/03 02:38:14;;;;;;;7.35;3.13;;;;;;;-145.63;53.17;39294.13;5106165;28;20032;-67
2023/10/03 02:40:40;;;;;;;4.63;2.80;;;;;;;-145.63;53.27;39356.72;5094303;28;20272;-67
2023/10/03 02:43:07;;;;;;;3.72;2.78;;;;;;;-145.63;53.28;39323.47;5104752;28;20494;-68
2023/10/03 02:45:32;;;;;;;4.22;2.70;;;;;;;-145.63;53.15;39309.78;5105966;28;20050;-68
2023/10/03 02:48:03;;;;;;;6.57;3.35;;;;;;;-145.63;53.19;39329.34;5106979;28;20024;-68
2023/10/03 02:50:32;;;;;;;4.85;2.97;;;;;;;-145.63;52.89;39337.16;5115733;28;20097;-68
2023/10/03 02:52:59;;;;;;;3.85;2.40;;;;;;;-145.63;52.89;39329.34;5106070;28;20024;-68
2023/10/03 02:55:25;;;;;;;6.30;3.17;;;;;;;-145.63;53.13;39321.50;5105462;28;20212;-68
2023/10/03 02:57:51;;;;;;;6.95;2.60;;;;;;;-145.63;52.99;39319.56;5105637;28;20054;-68
2023/10/03 03:00:19;;;;;;;4.97;2.92;;;;;;;-145.63;52.81;39294.13;5104734;28;20032;-68
2023/10/03 03:02:50;;;;;;;3.22;2.92;;;;;;;-145.63;52.79;39329.34;5105594;28;20039;-67
2023/10/03 03:05:17;;;;;;;5.18;3.38;;;;;;;-145.63;52.72;39301.94;5104206;28;20189;-68
2023/10/03 03:07:46;;;;;;;4.95;3.10;;;;;;;-145.63;52.81;39327.38;5105386;28;20028;-68
2023/10/03 03:10:21;;;;;;;5.85;3.40;;;;;;;-145.63;53.44;39329.34;5105381;28;20017;-69
2023/10/03 03:12:50;;;;;;;6.35;3.40;;;;;;;-145.63;52.87;39341.06;5097331;28;20028;-68
2023/10/03 03:15:23;;;;;;;3.28;2.90;;;;;;;-145.63;53.00;39309.78;5105407;28;20312;-69
2023/10/03 03:17:50;;;;;;;5.63;3.10;;;;;;;-145.63;52.76;39245.25;5105258;28;20336;-67
2023/10/03 03:20:26;;;;;;;3.65;2.65;;;;;;;-145.63;53.19;39327.38;5105419;28;20030;-68
2023/10/03 03:22:52;;;;;;;4.55;2.90;;;;;;;-145.63;52.86;39339.13;5100606;28;20028;-69
2023/10/03 03:25:35;;;;;;;4.35;3.08;;;;;;;-145.63;52.67;39307.81;5101675;28;20032;-69
2023/10/03 03:28:02;;;;;;;4.75;3.00;;;;;;;-145.63;52.92;39325.41;5104966;28;20055;-68
2023/10/03 03:32:54;;;;;;;6.10;3.10;;;;;;;-145.63;53.48;39294.13;5105056;28;20028;-68
2023/10/03 03:35:22;;;;;;;5.15;3.10;;;;;;;-145.63;52.95;39344.97;5104892;28;20380;-68
2023/10/03 03:37:48;;;;;;;4.15;2.92;;;;;;;-145.63;53.13;39333.25;5084781;28;20044;-68
2023/10/03 03:40:29;;;;;;;3.50;2.97;;;;;;;-145.63;53.49;39335.19;5115110;28;20034;-66
2023/10/03 03:43:00;;;;;;;5.13;3.08;;;;;;;-145.63;52.82;39321.50;5106418;28;20020;-67
2023/10/03 03:45:26;;;;;;;4.80;2.80;;;;;;;-145.63;53.23;39300.00;5104703;28;20046;-68
2023/10/03 03:47:54;;;;;;;4.78;2.63;;;;;;;-145.63;52.81;39333.25;5105323;28;20027;-66
2023/10/03 03:50:24;;;;;;;3.60;3.08;;;;;;;-145.63;52.92;39344.97;5109117;28;20197;-68
2023/10/03 03:52:51;;;;;;;3.83;2.97;;;;;;;-145.63;52.91;39356.72;5083297;28;20122;-66
2023/10/03 03:55:17;;;;;;;4.43;2.47;;;;;;;-145.63;52.76;39337.16;5100391;28;20024;-68
2023/10/03 03:57:45;;;;;;;5.10;2.85;;;;;;;-145.63;53.07;39344.97;5104808;28;20028;-68
2023/10/03 04:00:22;;;;;;;3.70;2.67;;;;;;;-145.63;53.10;39323.47;5103191;28;20027;-66
2023/10/03 04:02:48;;;;;;;7.15;2.75;;;;;;;-145.63;53.16;39317.59;5104512;28;20043;-68
2023/10/03 04:05:20;;;;;;;4.97;2.33;;;;;;;-145.63;52.68;39323.47;5104570;28;20027;-68
2023/10/03 04:07:46;;;;;;;3.65;2.58;;;;;;;-145.63;53.04;39329.34;5104447;28;20016;-68
2023/10/03 04:10:13;;;;;;;3.08;2.40;;;;;;;-145.63;53.25;39344.97;5104141;28;20047;-67
2023/10/03 04:12:43;;;;;;;4.93;2.17;;;;;;;-145.63;52.55;39343.03;5092441;28;20024;-67
2023/10/03 04:15:14;;;;;;;4.15;2.40;;;;;;;-145.63;52.74;39335.19;5090017;28;20070;-67
2023/10/03 04:17:43;;;;;;;3.47;2.10;;;;;;;-145.63;52.20;39337.16;5112603;28;20039;-67
2023/10/03 04:22:53;;;;;;;4.10;2.47;;;;;;;-145.63;52.36;39317.59;5084045;28;20197;-67
2023/10/03 04:25:21;;;;;;;4.07;2.38;;;;;;;-145.63;52.31;39313.69;5099666;28;20028;-67
2023/10/03 04:27:48;;;;;;;4.45;2.50;;;;;;;-145.63;52.38;39333.25;5107375;28;20024;-68
2023/10/03 04:30:14;;;;;;;4.10;2.53;;;;;;;-145.63;52.66;39303.91;5106745;28;20324;-68
2023/10/03 04:32:41;;;;;;;6.07;2.28;;;;;;;-145.63;52.30;39352.81;5103134;28;20039;-68
2023/10/03 04:35:13;;;;;;;4.90;2.38;;;;;;;-145.63;51.93;39331.28;5103360;28;20100;-67
2023/10/03 04:37:42;;;;;;;4.45;2.40;;;;;;;-145.63;51.99;39343.03;5103792;28;20028;-69
2023/10/03 04:40:11;;;;;;;3.55;2.35;;;;;;;-145.63;52.27;39372.34;5103007;28;20200;-67
2023/10/03 04:42:38;;;;;;;6.85;2.35;;;;;;;-145.63;52.41;39305.88;5096692;28;20215;-67
2023/10/03 04:45:10;;;;;;;3.95;2.22;;;;;;;-145.63;52.78;39307.81;5099646;28;20294;-66
2023/10/03 04:47:37;;;;;;;3.38;2.08;;;;;;;-145.63;52.22;39311.72;5104745;28;20340;-68
2023/10/03 04:50:04;;;;;;;4.13;2.55;;;;;;;-145.63;52.02;39350.84;5102156;28;20029;-68
2023/10/03 04:52:30;;;;;;;4.35;1.95;;;;;;;-145.63;52.46;39260.88;5098032;28;20340;-68
2023/10/03 04:54:57;;;;;;;3.83;2.30;;;;;;;-145.63;52.40;39325.41;5112173;28;20027;-69
2023/10/03 04:57:25;;;;;;;5.38;2.45;;;;;;;-145.63;52.35;39313.69;5114335;28;20062;-67
2023/10/03 04:59:50;;;;;;;5.93;2.35;;;;;;;-145.63;52.11;39274.56;5102852;28;20023;-68
2023/10/03 05:02:16;;;;;;;6.68;2.58;;;;;;;-145.63;52.17;39321.50;5103020;28;20329;-66
2023/10/03 05:04:41;;;;;;;6.00;2.60;;;;;;;-145.63;52.21;39321.50;5103154;28;20028;-69
2023/10/03 05:07:10;;;;;;;6.38;2.47;;;;;;;-145.63;51.80;39305.88;5103155;28;20024;-67
2023/10/03 05:09:35;;;;;;;4.10;2.88;;;;;;;-145.63;51.67;39323.47;5103047;28;20020;-67
2023/10/03 05:12:04;;;;;;;3.83;2.60;;;;;;;-145.63;51.75;39343.03;5093798;28;20127;-67
2023/10/03 05:14:30;;;;;;;3.97;3.00;;;;;;;-145.63;51.47;39294.13;5102663;28;20036;-68
2023/10/03 05:16:59;;;;;;;10.07;2.80;;;;;;;-145.63;51.69;39280.44;5101954;28;20075;-65
2023/10/03 05:19:25;;;;;;;6.00;2.72;;;;;;;-145.63;51.39;39301.94;5090684;28;20023;-66
2023/10/03 05:21:52;;;;;;;3.42;2.60;;;;;;;-145.63;51.37;39309.78;5102826;28;20028;-67
2023/10/03 05:24:19;;;;;;;4.00;2.75;;;;;;;-145.63;51.22;39282.41;5094557;28;20024;-67
2023/10/03 05:26:45;;;;;;;3.50;2.67;;;;;;;-145.63;51.06;39317.59;5084713;28;20029;-68
2023/10/03 05:29:10;;;;;;;5.38;3.50;;;;;;;-145.63;51.16;39276.53;5101375;28;20044;-68
2023/10/03 05:31:40;;;;;;;5.93;3.45;;;;;;;-145.63;51.10;39280.44;5102948;28;20365;-69
2023/10/03 05:34:07;;;;;;;5.20;3.72;;;;;;;-145.63;50.93;39323.47;5102924;28;20042;-69
2023/10/03 05:36:33;;;;;;;4.18;3.30;;;;;;;-145.63;50.84;39268.72;5102791;28;20332;-68
2023/10/03 05:38:59;;;;;;;9.68;4.32;;;;;;;-145.63;50.68;39274.56;5102850;28;20016;-68
2023/10/03 05:41:25;;;;;;;4.38;3.47;;;;;;;-145.63;50.87;39317.59;5102569;28;20028;-69
2023/10/03 05:43:51;;;;;;;7.63;3.42;;;;;;;-145.63;51.10;39264.78;5102803;28;20024;-69
2023/10/03 05:46:17;;;;;;;7.07;2.97;;;;;;;-145.63;50.37;39270.66;5106126;28;20189;-70
2023/10/03 05:48:43;;;;;;;5.38;3.38;;;;;;;-145.63;50.65;39300.00;5109749;28;20027;-68
2023/10/03 05:51:09;;;;;;;9.57;3.03;;;;;;;-145.63;50.28;39268.72;5105831;28;20036;-67
2023/10/03 05:53:35;;;;;;;9.88;3.40;;;;;;;-145.63;49.67;39219.81;5103305;28;20051;-65
2023/10/03 05:56:04;;;;;;;7.10;3.05;;;;;;;-145.63;49.95;39245.25;5092048;28;20028;-65
2023/10/03 05:58:30;;;;;;;7.85;3.35;;;;;;;-145.63;50.00;39282.41;5093766;28;20043;-66
2023/10/03 06:00:56;;;;;;;6.55;3.53;;;;;;;-145.63;50.03;39262.84;5101336;28;20028;-67
2023/10/03 06:03:22;;;;;;;6.00;2.88;;;;;;;-145.63;49.01;39307.81;5093200;28;20039;-66
2023/10/03 06:05:47;;;;;;;10.50;3.40;;;;;;;-145.63;49.75;39307.81;5100898;28;20031;-66
2023/10/03 06:08:13;;;;;;;10.25;3.10;;;;;;;-145.63;48.71;39260.88;5094776;28;20212;-66
2023/10/03 06:10:39;;;;;;;4.10;2.50;;;;;;;-145.63;47.90;39247.19;5096026;28;20028;-66
2023/10/03 06:13:11;;;;;;;5.00;2.50;;;;;;;-145.63;48.29;39223.72;5103064;28;20024;-66
2023/10/03 06:15:43;;;;;;;6.93;3.05;;;;;;;-145.63;47.84;39280.44;5112353;28;20053;-65
2023/10/03 06:18:08;;;;;;;4.70;2.85;;;;;;;-145.63;47.95;39217.84;5113773;28;20019;-66
2023/10/03 06:20:35;;;;;;;7.03;3.08;;;;;;;-145.63;47.71;39215.91;5105924;28;20182;-66
2023/10/03 06:23:04;;;;;;;7.07;3.60;;;;;;;-145.63;47.28;39233.50;5106579;28;20036;-66
2023/10/03 06:25:30;;;;;;;6.20;3.13;;;;;;;-145.63;46.65;39180.69;5105279;28;20024;-65
2023/10/03 06:27:56;;;;;;;6.75;2.67;;;;;;;-145.63;45.41;39139.63;5097728;28;20059;-65
2023/10/03 06:30:22;;;;;;;10.60;3.10;;;;;;;-145.63;44.74;39161.13;5094748;28;20047;-66
2023/10/03 06:32:48;;;;;;;5.47;2.88;;;;;;;-145.63;44.67;39112.25;5095811;28;20376;-66
2023/10/03 06:35:14;;;;;;;5.53;3.17;;;;;;;-145.63;43.30;39120.06;5097453;28;20304;-66
2023/10/03 06:37:40;;;;;;;9.32;3.15;;;;;;;-145.63;42.48;39094.66;5099083;28;20045;-67
2023/10/03 06:40:09;;;;;;;4.43;2.67;;;;;;;-145.63;41.76;39112.25;5106072;28;20028;-67
2023/10/03 06:42:35;;;;;;;3.97;2.38;;;;;;;-145.63;40.47;39096.59;5106017;28;20099;-66
2023/10/03 06:45:05;;;;;;;5.93;2.28;;;;;;;-145.63;40.92;39190.47;5106073;28;20028;-66
2023/10/03 06:47:34;;;;;;;4.13;2.35;;;;;;;-145.63;41.37;39215.91;5106057;28;20020;-67
2023/10/03 06:50:00;;;;;;;4.03;2.65;;;;;;;-145.63;40.43;39139.63;5112424;28;20027;-67
2023/10/03 06:52:28;;;;;;;5.50;2.88;;;;;;;-145.63;40.15;39102.47;5110391;28;20036;-65
2023/10/03 06:54:53;;;;;;;11.88;3.50;;;;;;;-145.63;39.60;39073.13;5105725;28;20216;-66
2023/10/03 06:57:19;;;;;;;5.82;2.95;;;;;;;-145.63;38.15;39069.22;5103492;28;20020;-65
2023/10/03 06:59:45;;;;;;;4.68;3.00;;;;;;;-145.63;38.92;39053.59;5104974;28;20031;-66
2023/10/03 07:02:10;;;;;;;7.00;3.17;;;;;;;-145.63;37.71;39061.41;5103805;28;20024;-66
2023/10/03 07:04:36;;;;;;;8.57;3.00;;;;;;;-145.63;37.34;39129.84;5099243;28;20261;-67
2023/10/03 07:07:03;;;;;;;8.35;2.70;;;;;;;-145.63;37.62;39122.03;5095220;28;20031;-67
2023/10/03 07:09:30;;;;;;;5.68;2.92;;;;;;;-145.63;38.15;39176.78;5094862;28;20024;-66
2023/10/03 07:11:55;;;;;;;7.47;2.60;;;;;;;-145.63;38.16;39141.59;5097271;28;20031;-66
2023/10/03 07:14:21;;;;;;;4.20;2.88;;;;;;;-145.63;38.10;39123.97;5095893;28;20028;-65
2023/10/03 07:16:48;;;;;;;7.03;2.92;;;;;;;-145.63;37.96;39129.84;5104087;28;20044;-66
2023/10/03 07:19:14;;;;;;;5.82;2.33;;;;;;;-145.63;37.42;39125.94;5104433;28;20089;-66
2023/10/03 07:21:41;;;;;;;5.60;2.50;;;;;;;-145.63;37.21;39165.06;5096351;28;20029;-66
2023/10/03 07:24:07;;;;;;;5.82;2.53;;;;;;;-145.63;38.13;39112.25;5093258;28;20043;-66
2023/10/03 07:26:33;;;;;;;8.30;2.70;;;;;;;-145.63;38.29;39159.19;5100301;28;20313;-67
2023/10/03 07:29:01;;;;;;;6.68;2.35;;;;;;;-145.63;37.25;39155.28;5104050;28;20048;-67
2023/10/03 07:31:27;;;;;;;3.08;2.20;;;;;;;-145.63;37.40;39159.19;5113239;28;21379;-66
2023/10/03 07:33:54;;;;;;;4.45;2.67;;;;;;;-145.63;37.27;39157.22;5105730;28;20027;-66
2023/10/03 07:36:20;;;;;;;5.35;2.22;;;;;;;-145.63;37.70;39161.13;5087774;28;20216;-66
2023/10/03 07:38:46;;;;;;;4.93;2.60;;;;;;;-145.63;37.38;39161.13;5096350;28;20028;-65
2023/10/03 07:41:17;;;;;;;6.68;2.80;;;;;;;-145.63;37.47;39120.06;5094996;28;20027;-65
2023/10/03 07:43:47;;;;;;;5.47;2.10;;;;;;;-145.63;37.93;39149.41;5103798;28;20060;-66
2023/10/03 07:46:25;;;;;;;5.10;2.72;;;;;;;-145.63;37.74;39131.81;5114415;28;20027;-66
2023/10/03 07:48:54;;;;;;;6.90;2.50;;;;;;;-145.63;38.10;39147.44;5110250;28;20266;-66
2023/10/03 07:51:27;;;;;;;6.97;2.38;;;;;;;-145.63;37.66;39186.56;5098076;28;20030;-67
2023/10/03 07:53:55;;;;;;;11.57;2.45;;;;;;;-145.63;38.52;39149.41;5093272;28;20091;-66
2023/10/03 07:56:26;;;;;;;6.25;2.40;;;;;;;-145.63;37.90;39153.31;5108733;28;20043;-67
2023/10/03 07:58:56;;;;;;;7.90;2.33;;;;;;;-145.63;38.04;39182.66;5099861;28;20021;-66
2023/10/03 08:01:26;;;;;;;5.20;2.30;;;;;;;-145.63;38.07;39123.97;5095493;28;20335;-67
2023/10/03 08:03:56;;;;;;;6.07;2.30;;;;;;;-145.63;37.40;39096.59;5094136;28;20051;-66
2023/10/03 08:06:23;;;;;;;9.73;2.72;;;;;;;-145.63;37.86;39167.00;5100935;28;20040;-66
2023/10/03 08:08:53;;;;;;;6.25;2.75;;;;;;;-145.63;37.59;39139.63;5105543;28;20048;-67
2023/10/03 08:11:28;;;;;;;7.60;2.72;;;;;;;-145.63;37.93;39170.91;5096116;28;20304;-66
2023/10/03 08:13:58;;;;;;;4.05;2.33;;;;;;;-145.63;37.57;39255.00;5103089;28;20103;-66
2023/10/03 08:16:27;;;;;;;3.63;2.45;;;;;;;-145.63;37.68;39137.69;5110940;28;20034;-65
2023/10/03 08:18:58;;;;;;;3.72;2.45;;;;;;;-145.63;37.59;39088.78;5100000;28;20138;-65
2023/10/03 08:21:28;;;;;;;3.78;2.55;;;;;;;-145.63;36.59;39129.84;5115203;28;20028;-65
2023/10/03 08:23:58;;;;;;;3.15;1.92;;;;;;;-145.63;36.70;39114.22;5104265;28;20054;-67
2023/10/03 08:26:27;;;;;;;6.35;2.85;;;;;;;-145.63;36.37;39118.13;5104120;28;20371;-66
2023/10/03 08:28:59;;;;;;;5.15;2.90;;;;;;;-145.63;36.36;39106.38;5097945;28;20106;-65
2023/10/03 08:31:27;;;;;;;4.13;2.10;;;;;;;-145.63;36.52;39096.59;5101590;28;20039;-67
2023/10/03 08:33:56;;;;;;;10.18;3.15;;;;;;;-145.63;35.48;39043.81;5099349;28;20028;-66
2023/10/03 08:36:31;;;;;;;8.40;2.85;;;;;;;-145.63;35.98;39067.28;5101209;28;20087;-66
2023/10/03 08:39:04;;;;;;;7.35;2.75;;;;;;;-145.63;34.65;39051.63;5103032;28;20035;-66
2023/10/03 08:42:34;;;;;;;4.45;2.30;;;;;;;-145.63;33.52;38977.31;5089095;28;20020;-66
2023/10/03 08:45:16;;;;;;;4.57;2.20;;;;;;;-145.63;33.04;39000.78;5045063;28;20036;-66
2023/10/03 08:47:47;;;;;;;7.07;2.75;;;;;;;-145.63;33.16;38922.56;5090738;28;20073;-67
2023/10/03 08:50:34;;;;;;;3.63;2.10;;;;;;;-145.63;31.97;38259.69;5094732;28;20036;-66
2023/10/03 08:53:12;;;;;;;3.50;2.45;;;;;;;-145.63;32.74;38910.81;5095107;28;20028;-65
2023/10/03 08:55:42;;;;;;;6.47;2.80;;;;;;;-145.63;32.46;38881.50;5097250;28;20065;-66
2023/10/03 08:58:08;;;;;;;4.68;2.70;;;;;;;-145.63;32.31;38861.94;5099483;28;20028;-66
2023/10/03 09:00:40;;;;;;;6.10;2.67;;;;;;;-145.63;31.72;38908.88;5092605;28;20324;-67
2023/10/03 09:03:11;;;;;;;4.53;2.63;;;;;;;-145.63;31.43;38895.19;5095275;28;20063;-65
2023/10/03 09:05:40;;;;;;;4.60;2.65;;;;;;;-145.63;31.62;38863.88;5088327;28;20051;-66
2023/10/03 09:08:15;;;;;;;7.78;3.20;;;;;;;-145.63;31.02;38816.97;5097095;28;20027;-65
2023/10/03 09:10:52;;;;;;;4.28;2.65;;;;;;;-145.63;31.37;38875.63;5093139;28;20091;-66
2023/10/03 09:13:24;;;;;;;5.53;2.75;;;;;;;-145.63;31.93;39004.69;5093717;28;20032;-67
2023/10/03 09:16:00;;;;;;;5.63;2.75;;;;;;;-145.63;31.92;38899.09;5095455;28;20020;-66
2023/10/03 09:18:31;;;;;;;6.20;3.00;;;;;;;-145.63;32.93;38975.34;5093873;28;20344;-65
2023/10/03 09:20:59;;;;;;;6.75;2.70;;;;;;;-145.63;33.80;39024.25;5094677;28;20284;-66
2023/10/03 09:23:37;;;;;;;5.50;2.70;;;;;;;-145.63;33.70;39032.06;5093209;28;20016;-66
2023/10/03 09:26:06;;;;;;;5.18;2.60;;;;;;;-145.63;34.55;38969.50;5093489;28;20033;-67
2023/10/03 09:28:35;;;;;;;3.95;2.30;;;;;;;-145.63;34.73;39067.28;5093742;28;20281;-65
2023/10/03 09:31:08;;;;;;;5.75;2.45;;;;;;;-145.63;35.33;39032.06;5091071;28;20072;-66
2023/10/03 09:33:38;;;;;;;5.18;2.78;;;;;;;-145.63;34.99;39088.78;5093829;28;20099;-65
2023/10/03 09:36:06;;;;;;;4.18;2.67;;;;;;;-145.63;35.63;39075.09;5093711;28;20036;-65
2023/10/03 09:38:46;;;;;;;8.60;3.05;;;;;;;-145.63;35.34;39053.59;5088905;28;20024;-67
2023/10/03 09:41:17;;;;;;;5.97;2.72;;;;;;;-145.63;35.11;39063.34;5087469;28;20031;-67
2023/10/03 09:43:57;;;;;;;5.07;2.75;;;;;;;-145.63;35.36;39030.13;5102543;28;20094;-67
2023/10/03 09:46:26;;;;;;;8.05;2.70;;;;;;;-145.63;35.80;39016.44;5093311;28;20382;-67
2023/10/03 09:48:55;;;;;;;5.20;2.70;;;;;;;-145.63;35.41;39016.44;5095633;28;20017;-67
2023/10/03 09:51:46;;;;;;;5.55;3.38;;;;;;;-145.63;35.25;39002.72;5101964;28;20091;-67
2023/10/03 09:54:23;;;;;;;5.47;2.92;;;;;;;-145.63;35.08;39032.06;5094055;28;20028;-65
2023/10/03 09:56:50;;;;;;;5.05;2.78;;;;;;;-145.63;35.70;39030.13;5099088;28;20048;-65
2023/10/03 09:59:18;;;;;;;7.25;3.13;;;;;;;-145.63;35.55;39032.06;5096208;28;20129;-65
2023/10/03 10:01:46;;;;;;;4.70;3.05;;;;;;;-145.63;35.25;39004.69;5096465;28;20032;-66
2023/10/03 10:04:15;;;;;;;6.47;3.30;;;;;;;-145.63;35.37;39018.38;5097963;28;20031;-67
2023/10/03 10:06:48;;;;;;;5.88;3.47;;;;;;;-145.63;35.23;39012.50;5095538;28;20285;-65
2023/10/03 10:09:27;;;;;;;7.93;3.15;;;;;;;-145.63;34.72;39071.19;5102430;28;20032;-68
2023/10/03 10:12:19;;;;;;;5.20;3.22;;;;;;;-145.63;35.19;39008.59;5106715;28;20085;-66
2023/10/03 10:17:58;;;;;;;9.23;3.00;;;;;;;-145.63;34.93;38992.97;5100847;28;20023;-65
2023/10/03 10:20:27;;;;;;;7.70;3.28;;;;;;;-145.63;35.49;38998.81;5103092;28;20107;-66
2023/10/03 10:23:02;;;;;;;7.38;3.28;;;;;;;-145.63;34.75;39014.47;5107527;28;20031;-65
2023/10/03 10:25:56;;;;;;;5.13;3.22;;;;;;;-145.63;35.01;39012.50;5104867;28;20024;-66
2023/10/03 10:28:32;;;;;;;5.90;3.28;;;;;;;-145.63;34.49;39010.56;5101686;28;20043;-66
2023/10/03 10:31:21;;;;;;;6.45;2.95;;;;;;;-145.63;34.66;39010.56;5097408;28;20035;-66
2023/10/03 10:33:49;;;;;;;6.18;3.42;;;;;;;-145.63;34.61;39051.63;5100569;28;20083;-67
2023/10/03 10:36:18;;;;;;;9.00;3.72;;;;;;;-145.63;34.71;39018.38;5100938;28;20367;-67
2023/10/03 10:38:44;;;;;;;9.75;3.85;;;;;;;-145.63;34.60;39057.50;5104911;28;20058;-66
2023/10/03 10:41:17;;;;;;;5.93;3.38;;;;;;;-145.63;34.76;39047.72;5087947;28;20012;-66
2023/10/03 10:44:05;;;;;;;7.22;3.20;;;;;;;-145.63;34.68;39034.03;5098103;28;20046;-67
2023/10/03 10:46:46;;;;;;;7.72;3.25;;;;;;;-145.63;34.99;39032.06;5096895;28;20325;-66
2023/10/03 10:49:31;;;;;;;8.85;3.67;;;;;;;-145.63;35.07;39020.34;5102430;28;20027;-67
2023/10/03 10:51:59;;;;;;;7.85;3.85;;;;;;;-145.63;35.08;39043.81;5098395;28;20024;-66
2023/10/03 10:54:26;;;;;;;6.07;3.70;;;;;;;-145.63;35.24;38996.88;5094945;28;20339;-66
2023/10/03 10:56:59;;;;;;;6.93;3.42;;;;;;;-145.63;33.88;39055.53;5102429;28;20047;-66
2023/10/03 10:59:31;;;;;;;6.07;3.42;;;;;;;-145.63;34.94;39032.06;5099947;28;20097;-66
2023/10/03 11:02:01;;;;;;;7.15;3.63;;;;;;;-145.63;34.41;39069.22;5108438;28;20522;-65
2023/10/03 11:04:29;;;;;;;6.18;3.58;;;;;;;-145.63;34.72;39020.34;5101822;28;20016;-66
2023/10/03 11:06:55;;;;;;;8.02;4.28;;;;;;;-145.63;34.47;39084.88;5095060;28;20028;-66
2023/10/03 11:09:23;;;;;;;6.60;3.58;;;;;;;-145.63;34.57;39055.53;5096308;28;20028;-68
2023/10/03 11:11:52;;;;;;;7.88;3.67;;;;;;;-145.63;34.76;39002.72;5092982;28;20024;-66
2023/10/03 11:14:29;;;;;;;5.80;3.13;;;;;;;-145.63;34.45;38994.91;5088077;28;20225;-67
2023/10/03 11:16:56;;;;;;;8.05;3.75;;;;;;;-145.63;34.77;39008.59;5102290;28;20032;-66
2023/10/03 11:19:23;;;;;;;7.35;4.13;;;;;;;-145.63;34.32;39061.41;5105364;28;20020;-66
2023/10/03 11:21:49;;;;;;;5.80;3.47;;;;;;;-145.63;34.42;39039.88;5105289;28;20031;-67
2023/10/03 11:24:17;;;;;;;6.55;3.72;;;;;;;-145.63;33.78;39122.03;5105183;28;20054;-67
2023/10/03 11:26:54;;;;;;;6.30;3.35;;;;;;;-145.63;34.65;39071.19;5105032;28;20055;-67
2023/10/03 11:29:38;;;;;;;7.95;3.92;;;;;;;-145.63;34.66;38973.41;5085150;28;20044;-67
2023/10/03 11:32:06;;;;;;;7.45;3.97;;;;;;;-145.63;34.51;39084.88;5100413;28;20047;-67
2023/10/03 11:34:34;;;;;;;6.95;3.53;;;;;;;-145.63;34.67;39059.44;5099177;28;20035;-70
2023/10/03 11:37:03;;;;;;;8.50;3.58;;;;;;;-145.63;34.29;39039.88;5112791;28;20028;-65
2023/10/03 11:39:36;;;;;;;7.00;4.03;;;;;;;-145.63;34.81;39049.66;5120137;28;20332;-67
2023/10/03 11:42:26;;;;;;;7.95;3.88;;;;;;;-145.63;34.64;39077.06;5104783;28;20032;-65